Time;durP1;ratioP1;P1;durP2;ratioP2;P2;SDS_P1;SDS_P2;PMS_P1;PMS_P2;Temp;Humidity;BMP_temperature;BMP_pressure;BME280_temperature;BME280_humidity;BME280_pressure;Samples;Min_cycle;Max_cycle;Signal;HPM_P1;HPM_P2
2022/12/07 00:01:35;;;;;;;12.77;9.00;;;;;;;1.01;100.00;100218.36;1410352;87;21367;-80
2022/12/07 00:04:06;;;;;;;15.87;9.43;;;;;;;1.01;100.00;100218.36;1403922;87;22086;-78
2022/12/07 00:06:41;;;;;;;20.08;12.18;;;;;;;1.03;100.00;100227.37;1563610;87;21811;-78
2022/12/07 00:09:11;;;;;;;16.00;10.13;;;;;;;1.02;100.00;100228.31;1403405;88;21404;-80
2022/12/07 00:11:38;;;;;;;15.60;9.80;;;;;;;0.86;100.00;100209.69;1402944;87;22764;-78
2022/12/07 00:14:09;;;;;;;16.67;10.30;;;;;;;0.86;100.00;100209.69;1413167;88;22111;-78
2022/12/07 00:16:35;;;;;;;14.95;9.73;;;;;;;0.90;100.00;100227.27;1403231;88;22982;-79
2022/12/07 00:19:02;;;;;;;15.90;9.20;;;;;;;0.86;100.00;100226.63;1407379;88;21396;-80
2022/12/07 00:21:32;;;;;;;13.77;9.37;;;;;;;0.84;100.00;100223.27;1405760;87;22024;-78
2022/12/07 00:23:59;;;;;;;14.40;9.23;;;;;;;0.79;100.00;100217.48;1403580;88;22165;-79
2022/12/07 00:26:28;;;;;;;14.93;9.50;;;;;;;0.79;100.00;100217.48;1406186;87;21906;-79
2022/12/07 00:29:00;;;;;;;16.80;10.00;;;;;;;0.81;100.00;100220.00;1403367;88;21924;-79
2022/12/07 00:31:38;;;;;;;19.83;11.17;;;;;;;0.75;100.00;100222.95;1563563;88;21798;-80
2022/12/07 00:34:06;;;;;;;16.90;10.53;;;;;;;0.75;100.00;100222.95;1569703;87;22002;-80
2022/12/07 00:36:33;;;;;;;16.50;9.97;;;;;;;0.79;100.00;100223.98;1565013;87;22077;-79
2022/12/07 00:39:00;;;;;;;14.63;9.80;;;;;;;0.79;100.00;100233.58;1413279;88;22255;-78
2022/12/07 00:41:28;;;;;;;16.60;11.27;;;;;;;0.76;100.00;100228.08;1394891;88;21813;-79
2022/12/07 00:43:54;;;;;;;16.10;11.30;;;;;;;0.77;100.00;100235.42;1405330;87;22126;-79
2022/12/07 00:46:21;;;;;;;23.90;12.87;;;;;;;0.75;100.00;100227.72;1413577;88;22126;-79
2022/12/07 00:48:49;;;;;;;17.00;10.73;;;;;;;0.66;100.00;100229.53;1405717;88;22703;-79
2022/12/07 00:51:18;;;;;;;16.40;11.33;;;;;;;0.63;100.00;100229.27;1405829;87;21923;-78
2022/12/07 00:53:44;;;;;;;16.47;10.37;;;;;;;0.63;100.00;100229.27;1409855;87;23014;-78
2022/12/07 00:56:17;;;;;;;17.17;10.50;;;;;;;0.55;100.00;100231.95;1404181;87;22228;-78
2022/12/07 00:58:46;;;;;;;13.83;10.07;;;;;;;0.54;100.00;100226.34;1496318;87;22074;-80
2022/12/07 01:01:12;;;;;;;15.37;10.93;;;;;;;0.53;100.00;100225.98;1410927;87;21846;-79
2022/12/07 01:03:39;;;;;;;13.80;10.07;;;;;;;0.53;100.00;100225.98;1559146;88;21956;-78
2022/12/07 01:06:05;;;;;;;15.73;11.10;;;;;;;0.48;100.00;100221.49;1555646;88;21744;-79
2022/12/07 01:08:32;;;;;;;21.00;12.63;;;;;;;0.39;100.00;100226.30;1398596;88;21850;-79
2022/12/07 01:11:06;;;;;;;14.43;10.07;;;;;;;0.39;100.00;100226.30;1398355;88;21901;-80
2022/12/07 01:13:35;;;;;;;13.77;9.93;;;;;;;0.41;100.00;100229.66;1394255;89;21998;-79
2022/12/07 01:16:04;;;;;;;13.70;9.43;;;;;;;0.38;100.00;100227.23;1556994;87;21836;-78
2022/12/07 01:18:34;;;;;;;13.93;10.20;;;;;;;0.37;100.00;100224.70;1401078;88;21836;-77
2022/12/07 01:21:11;;;;;;;14.60;9.10;;;;;;;0.37;100.00;100222.94;1394465;88;22030;-78
2022/12/07 01:23:38;;;;;;;16.23;10.27;;;;;;;0.36;100.00;100235.58;1352082;92;21861;-78
2022/12/07 01:26:08;;;;;;;18.80;11.93;;;;;;;0.33;100.00;100229.25;1366145;91;21763;-78
2022/12/07 01:28:35;;;;;;;20.60;12.60;;;;;;;0.29;100.00;100226.46;1400441;88;21769;-79
2022/12/07 01:31:05;;;;;;;13.10;10.00;;;;;;;0.26;100.00;100225.77;1398222;88;22291;-78
2022/12/07 01:33:35;;;;;;;18.77;11.03;;;;;;;0.24;100.00;100221.97;1559412;88;21833;-77
2022/12/07 01:36:07;;;;;;;13.80;8.87;;;;;;;0.18;100.00;100210.61;1394193;88;21354;-78
2022/12/07 01:38:34;;;;;;;16.73;10.20;;;;;;;0.18;100.00;100210.61;1401289;88;21849;-78
2022/12/07 01:41:01;;;;;;;14.47;10.23;;;;;;;0.20;100.00;100207.44;1398327;87;22511;-78
2022/12/07 01:43:30;;;;;;;14.27;9.77;;;;;;;0.20;100.00;100207.44;1397760;88;21822;-79
2022/12/07 01:45:57;;;;;;;21.83;13.20;;;;;;;0.18;100.00;100208.84;1401578;87;22456;-79
2022/12/07 01:48:40;;;;;;;16.23;11.77;;;;;;;0.18;100.00;100217.95;1559142;88;21800;-80
2022/12/07 01:51:11;;;;;;;14.37;9.60;;;;;;;0.12;100.00;100201.38;1559153;87;21795;-80
2022/12/07 01:53:42;;;;;;;15.90;10.00;;;;;;;0.14;100.00;100198.67;1559272;87;22498;-79
2022/12/07 01:56:12;;;;;;;15.55;11.45;;;;;;;0.13;100.00;100208.72;1394905;88;22241;-80
2022/12/07 01:58:38;;;;;;;16.07;10.20;;;;;;;0.12;100.00;100205.28;1489916;87;22226;-80
2022/12/07 02:01:05;;;;;;;16.17;11.63;;;;;;;0.14;100.00;100206.48;1398946;88;21287;-77
2022/12/07 02:03:36;;;;;;;15.40;9.90;;;;;;;0.13;100.00;100206.95;1552140;88;21803;-79
2022/12/07 02:06:04;;;;;;;16.33;11.07;;;;;;;0.12;100.00;100201.85;1559038;87;22816;-79
2022/12/07 02:08:30;;;;;;;16.83;11.13;;;;;;;0.11;100.00;100203.59;1396731;87;21640;-78
2022/12/07 02:10:56;;;;;;;16.23;10.27;;;;;;;0.13;100.00;100211.33;1398734;88;22591;-78
2022/12/07 02:13:27;;;;;;;17.87;11.60;;;;;;;0.15;100.00;100213.39;1559140;87;21722;-77
2022/12/07 02:16:10;;;;;;;17.23;11.10;;;;;;;0.15;100.00;100213.39;1559255;88;21744;-77
2022/12/07 02:19:02;;;;;;;15.30;11.17;;;;;;;0.17;100.00;100215.42;1394291;89;22285;-79
2022/12/07 02:21:46;;;;;;;16.63;10.60;;;;;;;0.16;100.00;100213.75;1559135;87;21896;-79
2022/12/07 02:24:21;;;;;;;18.83;11.37;;;;;;;0.12;100.00;100213.56;1541541;88;22411;-79
2022/12/07 02:27:16;;;;;;;16.77;11.37;;;;;;;0.05;100.00;100214.34;1544297;87;21694;-77
2022/12/07 02:30:04;;;;;;;17.07;11.30;;;;;;;0.05;100.00;100214.34;1559281;87;21772;-78
2022/12/07 02:32:58;;;;;;;13.97;9.90;;;;;;;0.07;100.00;100210.37;1559125;87;21603;-77
2022/12/07 02:35:36;;;;;;;15.33;10.30;;;;;;;0.08;100.00;100209.44;1400002;88;21644;-78
2022/12/07 02:38:44;;;;;;;22.07;11.33;;;;;;;0.07;100.00;100201.27;1539412;87;21699;-78
2022/12/07 02:41:24;;;;;;;17.83;11.63;;;;;;;0.07;100.00;100201.27;1559307;87;21492;-79
2022/12/07 02:44:00;;;;;;;16.87;11.43;;;;;;;0.02;100.00;100203.28;1395620;89;21660;-78
2022/12/07 02:46:38;;;;;;;16.20;11.37;;;;;;;-0.05;100.00;100194.52;1393966;87;21568;-79
2022/12/07 02:49:06;;;;;;;18.77;13.13;;;;;;;-0.08;100.00;100194.69;1559116;88;22571;-79
2022/12/07 02:51:33;;;;;;;15.53;10.30;;;;;;;-0.10;100.00;100193.93;1396092;88;22609;-79
2022/12/07 02:54:00;;;;;;;18.30;12.13;;;;;;;-0.10;100.00;100190.03;1403979;88;21586;-79
2022/12/07 02:56:40;;;;;;;21.47;13.57;;;;;;;-0.11;100.00;100194.86;1559100;88;21721;-79
2022/12/07 02:59:30;;;;;;;20.57;12.03;;;;;;;-0.14;100.00;100196.34;1469463;88;21580;-79
2022/12/07 03:02:08;;;;;;;21.93;13.77;;;;;;;-0.16;100.00;100199.48;1402947;88;22292;-79
2022/12/07 03:05:29;;;;;;;17.47;11.43;;;;;;;-0.18;100.00;100202.61;1552911;87;21827;-79
2022/12/07 03:08:04;;;;;;;16.87;11.30;;;;;;;-0.18;100.00;100199.18;1399537;87;21530;-78
2022/12/07 03:10:50;;;;;;;21.53;13.63;;;;;;;-0.13;100.00;100194.10;1550999;87;21611;-78
2022/12/07 03:13:47;;;;;;;19.40;11.97;;;;;;;-0.09;100.00;100195.59;1402546;88;21567;-78
2022/12/07 03:16:22;;;;;;;19.50;12.97;;;;;;;-0.06;100.00;100199.36;1559292;87;21667;-80
2022/12/07 03:19:05;;;;;;;16.80;12.50;;;;;;;-0.02;100.00;100197.41;1394153;89;22580;-79
2022/12/07 03:21:39;;;;;;;18.33;12.83;;;;;;;0.01;100.00;100205.52;1394135;89;21617;-80
2022/12/07 03:24:14;;;;;;;17.17;12.17;;;;;;;0.06;100.00;100202.17;1394448;87;21669;-80
2022/12/07 03:26:45;;;;;;;18.63;12.70;;;;;;;0.10;100.00;100203.69;1394613;87;21764;-80
2022/12/07 03:29:27;;;;;;;21.48;13.78;;;;;;;0.17;100.00;100206.31;1396034;89;21640;-81
2022/12/07 03:32:14;;;;;;;20.97;12.93;;;;;;;0.18;100.00;100197.13;1552816;87;21457;-77
2022/12/07 03:34:55;;;;;;;27.13;15.80;;;;;;;0.18;100.00;100191.92;1538006;88;21653;-77
2022/12/07 03:37:35;;;;;;;23.85;13.75;;;;;;;0.24;100.00;100199.02;1559063;87;21610;-77
2022/12/07 03:40:25;;;;;;;27.22;17.25;;;;;;;0.28;100.00;100193.53;1407347;88;21743;-77
2022/12/07 03:42:52;;;;;;;28.17;17.67;;;;;;;0.37;100.00;100193.46;1558924;87;22234;-78
2022/12/07 03:45:21;;;;;;;22.27;15.30;;;;;;;0.40;100.00;100175.06;1398209;88;21694;-77
2022/12/07 03:47:56;;;;;;;26.03;16.70;;;;;;;0.45;100.00;100179.07;1388426;89;21711;-76
2022/12/07 03:50:40;;;;;;;23.47;15.63;;;;;;;0.48;100.00;100172.02;1402993;87;22859;-77
2022/12/07 03:53:17;;;;;;;25.40;17.13;;;;;;;0.48;100.00;100172.02;1394476;89;21937;-76
2022/12/07 03:55:46;;;;;;;23.77;14.77;;;;;;;0.50;100.00;100181.42;1556993;88;22740;-76
2022/12/07 03:58:20;;;;;;;27.83;16.97;;;;;;;0.52;100.00;100178.71;1389425;89;21868;-77
2022/12/07 04:00:47;;;;;;;23.37;14.83;;;;;;;0.56;100.00;100177.62;1552776;87;22079;-77
2022/12/07 04:03:13;;;;;;;23.97;14.07;;;;;;;0.60;100.00;100173.89;1408330;87;21957;-77
2022/12/07 04:05:39;;;;;;;20.97;14.87;;;;;;;0.67;100.00;100172.63;1407034;87;21858;-77
2022/12/07 04:08:06;;;;;;;22.17;14.43;;;;;;;0.67;100.00;100172.63;1449882;87;22817;-76
2022/12/07 04:10:32;;;;;;;24.73;15.93;;;;;;;0.71;100.00;100172.80;1480381;88;21900;-77
2022/12/07 04:12:58;;;;;;;23.63;16.57;;;;;;;0.70;100.00;100172.91;1483797;87;22010;-77
2022/12/07 04:15:24;;;;;;;25.47;17.77;;;;;;;0.70;100.00;100172.91;1487194;88;21898;-77
2022/12/07 04:17:50;;;;;;;42.80;22.23;;;;;;;0.70;100.00;100167.23;1488221;87;22490;-76
2022/12/07 04:20:16;;;;;;;53.13;26.50;;;;;;;0.71;100.00;100166.29;1484953;88;21456;-77
2022/12/07 04:22:43;;;;;;;45.17;23.57;;;;;;;0.76;100.00;100163.42;1485163;88;22588;-77
2022/12/07 04:25:09;;;;;;;41.13;22.97;;;;;;;0.78;100.00;100160.27;1487831;87;23181;-77
2022/12/07 04:27:35;;;;;;;29.33;18.30;;;;;;;0.78;100.00;100160.27;1484646;87;21870;-77
2022/12/07 04:30:01;;;;;;;29.00;19.00;;;;;;;0.72;100.00;100148.45;1475744;88;22054;-78
2022/12/07 04:32:27;;;;;;;24.53;16.37;;;;;;;0.80;100.00;100167.03;1485543;87;21893;-78
2022/12/07 04:34:53;;;;;;;24.10;16.53;;;;;;;0.80;100.00;100167.03;1473208;88;21858;-78
2022/12/07 04:37:19;;;;;;;20.27;14.87;;;;;;;0.83;100.00;100164.25;1478448;88;21366;-77
2022/12/07 04:39:45;;;;;;;25.57;15.27;;;;;;;0.83;100.00;100164.25;1470731;88;22186;-77
2022/12/07 04:42:12;;;;;;;24.00;16.30;;;;;;;0.89;100.00;100178.23;1487334;87;22232;-79
2022/12/07 04:44:39;;;;;;;37.43;18.13;;;;;;;0.88;100.00;100160.07;1482875;87;21514;-79
2022/12/07 04:47:05;;;;;;;45.17;24.40;;;;;;;0.95;100.00;100167.05;1488688;87;22920;-78
2022/12/07 04:49:31;;;;;;;31.90;18.77;;;;;;;0.89;100.00;100162.60;1486542;88;22025;-80
2022/12/07 04:51:57;;;;;;;24.43;15.10;;;;;;;0.93;100.00;100167.62;1482577;88;22442;-80
2022/12/07 04:54:23;;;;;;;25.87;18.13;;;;;;;0.93;100.00;100167.62;1470132;88;22216;-79
2022/12/07 04:56:50;;;;;;;22.43;14.60;;;;;;;1.00;100.00;100176.73;1477092;87;21678;-80
2022/12/07 04:59:17;;;;;;;25.97;16.00;;;;;;;0.98;100.00;100166.42;1488210;88;21455;-80
2022/12/07 05:01:43;;;;;;;35.87;21.10;;;;;;;0.98;100.00;100166.42;1470459;88;22171;-79
2022/12/07 05:04:10;;;;;;;28.90;18.43;;;;;;;1.04;100.00;100173.03;1489531;87;22031;-80
2022/12/07 05:06:36;;;;;;;24.33;17.03;;;;;;;1.01;100.00;100161.49;1467538;88;23134;-80
2022/12/07 05:09:03;;;;;;;21.43;15.07;;;;;;;1.00;100.00;100162.41;1482373;88;22209;-79
2022/12/07 05:11:39;;;;;;;24.83;14.80;;;;;;;1.07;100.00;100175.45;1481726;88;21976;-80
2022/12/07 05:14:17;;;;;;;23.10;14.33;;;;;;;1.07;100.00;100175.45;1489475;88;22124;-78
2022/12/07 05:16:47;;;;;;;26.30;15.80;;;;;;;1.03;100.00;100164.81;1569929;88;23040;-80
2022/12/07 05:19:13;;;;;;;38.87;17.27;;;;;;;1.03;100.00;100168.73;1439088;88;22244;-78
2022/12/07 05:21:40;;;;;;;23.53;13.27;;;;;;;1.05;100.00;100172.09;1482202;87;22126;-78
2022/12/07 05:24:10;;;;;;;22.40;15.00;;;;;;;1.09;100.00;100173.56;1479136;88;23622;-78
2022/12/07 05:26:36;;;;;;;21.70;14.25;;;;;;;1.12;100.00;100181.20;1482006;88;22106;-80
2022/12/07 05:29:03;;;;;;;31.27;17.80;;;;;;;1.09;100.00;100173.56;1481458;87;22409;-80
2022/12/07 05:31:29;;;;;;;21.30;14.60;;;;;;;1.12;100.00;100172.94;1478066;87;22130;-79
2022/12/07 05:33:55;;;;;;;24.43;16.73;;;;;;;1.12;100.00;100172.94;1486813;88;22275;-79
2022/12/07 05:36:22;;;;;;;25.03;15.63;;;;;;;1.13;100.00;100171.16;1469418;88;22158;-80
2022/12/07 05:38:49;;;;;;;23.10;15.57;;;;;;;1.13;100.00;100171.16;1485251;87;22165;-80
2022/12/07 05:44:04;;;;;;;20.50;13.80;;;;;;;1.19;100.00;100176.00;1483330;88;22071;-79
2022/12/07 05:46:30;;;;;;;22.23;15.23;;;;;;;1.24;100.00;100171.81;1483607;87;21959;-79
2022/12/07 05:48:56;;;;;;;27.83;16.37;;;;;;;1.24;100.00;100171.81;1482121;87;22357;-80
2022/12/07 05:51:22;;;;;;;20.00;13.23;;;;;;;1.27;100.00;100167.72;1484457;87;22141;-80
2022/12/07 05:53:48;;;;;;;18.87;13.90;;;;;;;1.30;100.00;100173.57;1486576;88;21492;-80
2022/12/07 05:56:15;;;;;;;24.43;16.37;;;;;;;1.33;100.00;100166.86;1478604;88;23023;-81
2022/12/07 06:01:26;;;;;;;21.30;14.93;;;;;;;1.37;100.00;100171.88;1483976;88;22394;-82
2022/12/07 06:03:52;;;;;;;20.63;14.70;;;;;;;1.42;100.00;100172.44;1482059;87;23068;-81
2022/12/07 06:06:18;;;;;;;23.40;15.60;;;;;;;1.45;100.00;100170.95;1480822;87;22232;-81
2022/12/07 06:08:44;;;;;;;28.43;18.83;;;;;;;1.47;100.00;100171.22;1554868;88;22070;-82
2022/12/07 06:13:55;;;;;;;25.00;16.60;;;;;;;1.48;100.00;100177.27;1559261;88;22025;-80
2022/12/07 06:16:21;;;;;;;21.70;14.90;;;;;;;1.51;100.00;100176.61;1398788;87;22062;-82
2022/12/07 06:18:47;;;;;;;21.63;15.23;;;;;;;1.54;100.00;100177.72;1398869;87;21389;-81
2022/12/07 06:21:14;;;;;;;22.57;16.40;;;;;;;1.61;100.00;100179.94;1398547;88;21587;-79
2022/12/07 06:23:40;;;;;;;23.80;15.63;;;;;;;1.62;100.00;100169.89;1431646;88;22144;-81
2022/12/07 06:26:06;;;;;;;24.77;16.20;;;;;;;1.61;100.00;100176.02;1472086;88;22136;-82
2022/12/07 06:28:32;;;;;;;25.57;15.63;;;;;;;1.62;100.00;100168.59;1479953;87;22145;-82
2022/12/07 06:30:59;;;;;;;23.87;16.03;;;;;;;1.60;100.00;100171.75;1473430;87;21375;-82
2022/12/07 06:33:27;;;;;;;28.47;14.80;;;;;;;1.63;100.00;100173.69;1397226;87;21376;-79
2022/12/07 06:35:53;;;;;;;30.57;20.17;;;;;;;1.61;100.00;100173.41;1397170;88;22134;-81
2022/12/07 06:38:19;;;;;;;23.80;16.63;;;;;;;1.64;100.00;100170.17;1404402;87;22336;-79
2022/12/07 06:40:45;;;;;;;24.77;18.10;;;;;;;1.67;100.00;100177.80;1398990;87;22049;-79
2022/12/07 06:43:12;;;;;;;20.67;14.80;;;;;;;1.67;100.00;100174.33;1398632;88;22078;-81
2022/12/07 06:45:38;;;;;;;23.90;16.73;;;;;;;1.64;100.00;100176.69;1398612;87;22042;-79
2022/12/07 06:48:05;;;;;;;24.43;16.60;;;;;;;1.69;100.00;100177.69;1404860;88;22152;-80
2022/12/07 06:50:31;;;;;;;20.07;14.73;;;;;;;1.71;100.00;100173.22;1398221;87;22049;-79
2022/12/07 06:52:57;;;;;;;20.70;14.57;;;;;;;1.73;100.00;100172.19;1398753;87;22063;-80
2022/12/07 06:55:23;;;;;;;23.70;15.70;;;;;;;1.77;100.00;100174.96;1404686;87;21368;-81
2022/12/07 06:57:49;;;;;;;22.83;16.40;;;;;;;1.78;100.00;100175.35;1559113;87;22167;-81
2022/12/07 07:00:16;;;;;;;21.60;15.33;;;;;;;1.81;100.00;100174.30;1398648;88;22115;-81
2022/12/07 07:02:42;;;;;;;17.80;13.27;;;;;;;1.81;100.00;100174.30;1397819;88;21301;-81
2022/12/07 07:05:08;;;;;;;23.17;16.07;;;;;;;1.87;100.00;100179.59;1539974;87;22157;-80
2022/12/07 07:07:34;;;;;;;26.07;15.03;;;;;;;1.91;100.00;100175.86;1407255;88;21367;-83
2022/12/07 07:10:00;;;;;;;20.93;12.63;;;;;;;1.93;100.00;100177.92;1407650;87;22017;-80
2022/12/07 07:12:26;;;;;;;19.47;13.37;;;;;;;1.94;100.00;100179.58;1413059;87;22972;-80
2022/12/07 07:14:52;;;;;;;20.73;14.57;;;;;;;1.95;100.00;100179.94;1569932;87;22048;-81
2022/12/07 07:17:18;;;;;;;17.97;12.63;;;;;;;1.95;100.00;100174.25;1407730;87;21316;-79
2022/12/07 07:19:44;;;;;;;19.37;12.80;;;;;;;1.96;100.00;100174.63;1407652;87;21456;-76
2022/12/07 07:22:11;;;;;;;21.93;14.97;;;;;;;1.97;100.00;100174.16;1413579;88;22278;-76
2022/12/07 07:24:37;;;;;;;18.23;13.47;;;;;;;1.97;100.00;100178.91;1407272;88;22070;-78
2022/12/07 07:27:03;;;;;;;18.33;12.53;;;;;;;2.02;100.00;100185.15;1406988;87;22883;-76
2022/12/07 07:29:29;;;;;;;20.23;14.20;;;;;;;2.03;100.00;100180.28;1407146;87;22202;-77
2022/12/07 07:31:55;;;;;;;20.37;13.43;;;;;;;2.03;100.00;100180.28;1413703;87;22197;-77
2022/12/07 07:34:21;;;;;;;18.43;13.90;;;;;;;2.01;100.00;100176.93;1407257;87;22077;-76
2022/12/07 07:36:47;;;;;;;20.20;13.87;;;;;;;2.02;100.00;100180.77;1407653;87;21440;-78
2022/12/07 07:39:14;;;;;;;19.17;13.43;;;;;;;2.05;100.00;100178.90;1407415;87;22121;-78
2022/12/07 07:41:40;;;;;;;20.50;12.60;;;;;;;2.04;100.00;100179.34;1407039;87;21523;-76
2022/12/07 07:44:06;;;;;;;21.20;13.33;;;;;;;2.08;100.00;100186.05;1407580;87;22017;-78
2022/12/07 07:46:35;;;;;;;18.27;13.67;;;;;;;2.13;100.00;100181.82;1407685;87;22160;-77
2022/12/07 07:49:21;;;;;;;20.30;14.07;;;;;;;2.20;100.00;100193.56;1413218;87;21501;-76
2022/12/07 07:51:47;;;;;;;18.13;13.20;;;;;;;2.31;100.00;100189.78;1569797;88;22025;-78
2022/12/07 07:54:13;;;;;;;16.13;12.03;;;;;;;2.43;100.00;100184.22;1407546;87;22987;-77
2022/12/07 07:56:39;;;;;;;17.30;12.67;;;;;;;2.44;100.00;100193.72;1407367;87;21426;-76
2022/12/07 07:59:05;;;;;;;21.70;12.60;;;;;;;2.42;100.00;100198.23;1471848;87;21353;-76
2022/12/07 08:01:31;;;;;;;16.20;11.73;;;;;;;2.42;100.00;100195.61;1406997;88;21345;-77
2022/12/07 08:03:57;;;;;;;20.67;13.07;;;;;;;2.37;100.00;100195.07;1413836;87;21397;-75
2022/12/07 08:06:23;;;;;;;18.40;12.60;;;;;;;2.43;100.00;100190.27;1569791;88;21560;-76
2022/12/07 08:08:49;;;;;;;21.33;14.23;;;;;;;2.43;100.00;100198.58;1407381;87;22987;-76
2022/12/07 08:11:15;;;;;;;21.17;13.83;;;;;;;2.44;100.00;100196.33;1551520;88;22381;-78
2022/12/07 08:13:42;;;;;;;21.03;13.73;;;;;;;2.41;100.00;100189.53;1407386;88;21428;-77
2022/12/07 08:16:11;;;;;;;21.73;15.63;;;;;;;2.39;100.00;100190.59;1412972;88;22214;-77
2022/12/07 08:18:40;;;;;;;21.80;16.07;;;;;;;2.30;100.00;100195.09;1403869;88;21551;-77
2022/12/07 08:21:09;;;;;;;23.63;15.10;;;;;;;2.26;100.00;100181.41;1569401;87;21538;-77
2022/12/07 08:23:35;;;;;;;20.00;14.77;;;;;;;2.26;100.00;100181.41;1409721;87;21434;-77
2022/12/07 08:26:03;;;;;;;24.60;15.43;;;;;;;2.20;100.00;100193.08;1569792;88;22936;-78
2022/12/07 08:28:29;;;;;;;19.53;13.60;;;;;;;2.12;100.00;100182.77;1405907;87;21352;-77
2022/12/07 08:31:15;;;;;;;20.60;13.20;;;;;;;2.12;100.00;100184.98;1560188;87;21449;-76
2022/12/07 08:33:42;;;;;;;23.00;16.03;;;;;;;2.18;100.00;100184.98;1553657;87;21338;-77
2022/12/07 08:36:11;;;;;;;21.27;14.90;;;;;;;2.18;100.00;100183.20;1465262;87;22084;-76
2022/12/07 08:38:39;;;;;;;20.13;14.47;;;;;;;2.20;100.00;100181.81;1403745;87;21544;-78
2022/12/07 08:41:07;;;;;;;19.90;14.57;;;;;;;2.20;100.00;100181.81;1404475;87;22351;-78
2022/12/07 08:43:34;;;;;;;20.70;14.20;;;;;;;2.26;100.00;100188.77;1405637;88;22287;-75
2022/12/07 08:46:12;;;;;;;17.83;13.07;;;;;;;2.26;100.00;100188.77;1405753;88;21345;-75
2022/12/07 08:48:46;;;;;;;17.57;12.50;;;;;;;2.26;100.00;100188.77;1411203;88;21404;-75
2022/12/07 08:51:13;;;;;;;22.70;16.80;;;;;;;2.26;100.00;100184.02;1481232;88;21596;-78
2022/12/07 08:53:41;;;;;;;17.93;13.80;;;;;;;2.24;100.00;100176.30;1406536;88;21361;-77
2022/12/07 08:56:08;;;;;;;21.67;16.40;;;;;;;2.23;100.00;100185.05;1405190;88;21511;-78
2022/12/07 08:58:37;;;;;;;21.30;14.53;;;;;;;2.33;100.00;100194.45;1412088;88;21456;-76
2022/12/07 09:01:04;;;;;;;23.97;17.03;;;;;;;2.35;100.00;100190.41;1404197;87;21419;-77
2022/12/07 09:03:31;;;;;;;24.50;14.40;;;;;;;2.47;100.00;100196.13;1395066;88;21434;-76
2022/12/07 09:05:59;;;;;;;21.43;15.60;;;;;;;2.47;100.00;100181.75;1556184;87;21456;-77
2022/12/07 09:08:33;;;;;;;24.87;15.57;;;;;;;2.52;100.00;100190.13;1405146;87;21526;-77
2022/12/07 09:10:59;;;;;;;24.97;14.83;;;;;;;2.59;100.00;100185.32;1569763;87;21338;-78
2022/12/07 09:13:25;;;;;;;24.30;14.83;;;;;;;2.63;100.00;100185.50;1396509;88;21346;-78
2022/12/07 09:15:51;;;;;;;21.63;14.83;;;;;;;2.64;100.00;100180.16;1407491;87;21419;-87
2022/12/07 09:18:17;;;;;;;22.90;15.43;;;;;;;2.68;100.00;100182.95;1424776;88;21382;-83
2022/12/07 09:20:43;;;;;;;22.03;15.20;;;;;;;2.77;100.00;100178.05;1569825;87;21353;-81
2022/12/07 09:23:09;;;;;;;22.53;14.73;;;;;;;2.83;100.00;100177.62;1407689;88;21301;-81
2022/12/07 09:25:35;;;;;;;21.27;15.77;;;;;;;2.87;100.00;100180.39;1407660;87;21412;-83
2022/12/07 09:28:01;;;;;;;21.80;14.57;;;;;;;2.90;100.00;100174.95;1413195;88;21480;-83
2022/12/07 09:30:28;;;;;;;23.83;15.43;;;;;;;2.97;100.00;100178.00;1481257;88;21433;-82
2022/12/07 09:32:56;;;;;;;24.37;16.00;;;;;;;3.02;100.00;100170.66;1481422;87;21403;-83
2022/12/07 09:35:23;;;;;;;23.20;17.13;;;;;;;3.05;100.00;100170.00;1483134;87;21463;-82
2022/12/07 09:37:49;;;;;;;23.23;16.60;;;;;;;3.08;100.00;100170.23;1487851;87;21680;-82
2022/12/07 09:40:19;;;;;;;21.77;15.10;;;;;;;3.08;100.00;100152.78;1483191;88;21471;-83
2022/12/07 09:42:53;;;;;;;19.83;13.57;;;;;;;3.16;100.00;100158.77;1481103;87;22146;-81
2022/12/07 09:45:28;;;;;;;23.07;14.33;;;;;;;3.24;100.00;100160.86;1483022;87;21661;-83
2022/12/07 09:47:54;;;;;;;22.33;14.97;;;;;;;3.28;100.00;100166.23;1483165;88;21448;-84
2022/12/07 09:50:28;;;;;;;17.47;13.47;;;;;;;3.34;100.00;100159.29;1484852;88;21448;-83
2022/12/07 09:53:05;;;;;;;16.53;11.83;;;;;;;3.36;100.00;100159.52;1569579;88;21346;-83
2022/12/07 09:55:33;;;;;;;16.33;12.00;;;;;;;3.40;100.00;100154.92;1404399;88;21449;-83
2022/12/07 09:57:59;;;;;;;15.80;11.43;;;;;;;3.52;100.00;100155.84;1404870;87;21367;-82
2022/12/07 10:00:28;;;;;;;19.23;13.30;;;;;;;3.70;100.00;100147.97;1407573;88;21485;-83
2022/12/07 10:03:00;;;;;;;18.33;12.40;;;;;;;3.87;100.00;100146.75;1404984;87;21375;-84
2022/12/07 10:05:34;;;;;;;16.63;11.53;;;;;;;4.08;100.00;100145.65;1490773;87;21419;-83
2022/12/07 10:08:01;;;;;;;15.17;11.63;;;;;;;4.32;100.00;100148.25;1569639;87;21568;-84
2022/12/07 10:10:38;;;;;;;16.93;11.10;;;;;;;4.36;97.30;100147.06;1407133;87;21419;-82
2022/12/07 10:13:13;;;;;;;19.67;13.97;;;;;;;4.50;97.42;100146.86;1403881;88;21397;-82
2022/12/07 10:15:53;;;;;;;16.87;11.93;;;;;;;4.55;96.83;100147.02;1399543;88;21515;-81
2022/12/07 10:18:40;;;;;;;16.67;11.45;;;;;;;4.60;96.72;100151.41;1566551;88;22316;-81
2022/12/07 10:21:24;;;;;;;15.63;10.20;;;;;;;4.61;95.96;100149.17;1403276;87;22476;-84
2022/12/07 10:24:15;;;;;;;17.07;12.45;;;;;;;4.72;94.34;100146.56;1405060;88;22365;-84
2022/12/07 10:26:51;;;;;;;15.03;11.60;;;;;;;4.65;94.06;100140.11;1401925;90;21425;-82
2022/12/07 10:29:31;;;;;;;14.00;10.63;;;;;;;4.50;94.27;100144.24;1533677;90;21431;-82
2022/12/07 10:32:05;;;;;;;18.33;11.80;;;;;;;4.26;94.71;100146.09;1533663;90;21498;-80
2022/12/07 10:34:37;;;;;;;17.50;12.40;;;;;;;4.19;95.69;100148.80;1533688;90;22209;-81
2022/12/07 10:37:18;;;;;;;19.10;13.53;;;;;;;4.14;97.15;100153.05;1533767;90;21494;-82
2022/12/07 10:39:52;;;;;;;22.65;14.63;;;;;;;4.07;97.26;100148.75;1432669;90;21542;-82
2022/12/07 10:42:26;;;;;;;16.80;12.60;;;;;;;4.01;97.99;100150.51;1524975;90;21602;-76
2022/12/07 10:45:15;;;;;;;16.63;13.03;;;;;;;3.89;98.51;100144.04;1525310;90;21395;-81
2022/12/07 10:48:03;;;;;;;18.77;14.63;;;;;;;3.87;99.31;100147.23;1380899;90;21546;-81
2022/12/07 10:50:51;;;;;;;18.27;13.63;;;;;;;3.87;100.00;100150.68;1525878;90;21621;-81
2022/12/07 10:57:58;;;;;;;30.03;20.43;;;;;;;3.90;100.00;100146.53;1447554;90;21451;-81
2022/12/07 11:00:27;;;;;;;20.57;15.73;;;;;;;4.01;100.00;100140.03;1437772;90;21662;-83
2022/12/07 11:03:33;;;;;;;18.37;13.93;;;;;;;4.02;99.96;100140.39;1426581;90;22551;-84
2022/12/07 11:06:25;;;;;;;20.13;14.70;;;;;;;3.98;99.95;100138.13;1432276;90;22640;-86
2022/12/07 11:09:22;;;;;;;;;;;;;;;3.96;100.00;100138.70;1448226;90;21448;-84
2022/12/07 11:12:06;;;;;;;22.80;15.73;;;;;;;3.98;100.00;100135.50;1439615;90;20315;-84
2022/12/07 11:14:50;;;;;;;18.50;13.70;;;;;;;3.98;100.00;100135.02;1440477;90;21411;-84
2022/12/07 11:17:35;;;;;;;22.37;17.10;;;;;;;4.01;100.00;100133.48;1443323;90;21516;-84
2022/12/07 11:20:31;;;;;;;20.40;16.23;;;;;;;4.05;100.00;100130.99;1470061;88;21507;-85
2022/12/07 11:23:57;;;;;;;21.27;15.40;;;;;;;4.10;100.00;100125.42;1483296;88;21529;-82
2022/12/07 11:26:58;;;;;;;22.07;13.77;;;;;;;4.14;99.36;100120.79;1476385;88;21611;-84
2022/12/07 11:33:39;;;;;;;20.60;15.07;;;;;;;4.33;99.28;100117.64;1483157;88;22551;-83
2022/12/07 11:40:27;;;;;;;17.60;13.30;;;;;;;4.32;98.07;100115.98;1484711;88;21485;-84
2022/12/07 11:43:10;;;;;;;18.50;12.53;;;;;;;4.34;98.42;100117.52;1488191;87;21397;-83
2022/12/07 11:45:41;;;;;;;17.57;13.43;;;;;;;4.33;98.09;100111.09;1482838;87;21514;-86
2022/12/07 11:48:21;;;;;;;19.00;14.03;;;;;;;4.39;98.47;100106.70;1487769;87;21433;-86
2022/12/07 11:50:55;;;;;;;16.40;13.58;;;;;;;4.36;97.34;100110.38;1483932;87;21508;-85